sensor_id;sensor_type;location;lat;lon;timestamp;temperature;humidity
66610;DHT22;53468;48.276;14.416;2023-02-28T00:00:51;0.00;99.90
66610;DHT22;53468;48.276;14.416;2023-02-28T00:05:54;-0.10;99.90
66610;DHT22;53468;48.276;14.416;2023-02-28T00:11:01;0.00;99.90
66610;DHT22;53468;48.276;14.416;2023-02-28T00:16:05;0.00;99.90
66610;DHT22;53468;48.276;14.416;2023-02-28T00:21:09;-0.10;99.90
66610;DHT22;53468;48.276;14.416;2023-02-28T00:26:11;-0.10;99.90
66610;DHT22;53468;48.276;14.416;2023-02-28T00:31:13;-0.20;99.90
66610;DHT22;53468;48.276;14.416;2023-02-28T00:36:17;-0.20;99.90
66610;DHT22;53468;48.276;14.416;2023-02-28T00:41:19;-0.30;99.90
66610;DHT22;53468;48.276;14.416;2023-02-28T00:46:21;-0.30;99.90
66610;DHT22;53468;48.276;14.416;2023-02-28T00:51:26;-0.30;99.90
66610;DHT22;53468;48.276;14.416;2023-02-28T00:56:28;-0.30;99.90
66610;DHT22;53468;48.276;14.416;2023-02-28T01:01:30;-0.40;99.90
66610;DHT22;53468;48.276;14.416;2023-02-28T01:06:34;-0.40;99.90
66610;DHT22;53468;48.276;14.416;2023-02-28T01:11:36;-0.30;99.90
66610;DHT22;53468;48.276;14.416;2023-02-28T01:16:39;-0.50;99.90
66610;DHT22;53468;48.276;14.416;2023-02-28T01:21:43;-0.50;99.90
66610;DHT22;53468;48.276;14.416;2023-02-28T01:26:45;-0.50;99.90
66610;DHT22;53468;48.276;14.416;2023-02-28T01:31:47;-0.50;99.90
66610;DHT22;53468;48.276;14.416;2023-02-28T01:36:51;-0.50;99.90
66610;DHT22;53468;48.276;14.416;2023-02-28T01:41:53;-0.50;99.90
66610;DHT22;53468;48.276;14.416;2023-02-28T01:46:55;-0.50;99.90
66610;DHT22;53468;48.276;14.416;2023-02-28T01:51:58;-0.50;99.90
66610;DHT22;53468;48.276;14.416;2023-02-28T01:57:04;-0.60;99.90
66610;DHT22;53468;48.276;14.416;2023-02-28T02:02:07;-0.70;99.90
66610;DHT22;53468;48.276;14.416;2023-02-28T02:07:11;-0.60;99.90
66610;DHT22;53468;48.276;14.416;2023-02-28T02:12:25;-0.70;99.90
66610;DHT22;53468;48.276;14.416;2023-02-28T02:17:33;-0.70;99.90
66610;DHT22;53468;48.276;14.416;2023-02-28T02:22:55;-0.60;99.90
66610;DHT22;53468;48.276;14.416;2023-02-28T02:28:29;-0.80;99.90
66610;DHT22;53468;48.276;14.416;2023-02-28T02:39:23;-0.80;99.90
66610;DHT22;53468;48.276;14.416;2023-02-28T02:44:33;-0.80;99.90
66610;DHT22;53468;48.276;14.416;2023-02-28T02:49:40;-0.80;99.90
66610;DHT22;53468;48.276;14.416;2023-02-28T02:54:46;-0.90;99.90
66610;DHT22;53468;48.276;14.416;2023-02-28T02:59:51;-0.90;99.90
66610;DHT22;53468;48.276;14.416;2023-02-28T03:04:59;-0.90;99.90
66610;DHT22;53468;48.276;14.416;2023-02-28T03:10:29;-0.90;99.90
66610;DHT22;53468;48.276;14.416;2023-02-28T03:15:35;-1.00;99.90
66610;DHT22;53468;48.276;14.416;2023-02-28T03:20:43;-0.90;99.90
66610;DHT22;53468;48.276;14.416;2023-02-28T03:25:57;-1.00;99.90
66610;DHT22;53468;48.276;14.416;2023-02-28T03:31:06;-1.00;99.90
66610;DHT22;53468;48.276;14.416;2023-02-28T03:36:12;-1.00;99.90
66610;DHT22;53468;48.276;14.416;2023-02-28T03:41:19;-1.00;99.90
66610;DHT22;53468;48.276;14.416;2023-02-28T03:46:25;-1.00;99.90
66610;DHT22;53468;48.276;14.416;2023-02-28T03:51:29;-1.10;99.90
66610;DHT22;53468;48.276;14.416;2023-02-28T03:56:37;-1.10;99.90
66610;DHT22;53468;48.276;14.416;2023-02-28T04:01:43;-1.00;99.90
66610;DHT22;53468;48.276;14.416;2023-02-28T04:06:45;-1.10;99.90
66610;DHT22;53468;48.276;14.416;2023-02-28T04:11:51;-1.10;99.90
66610;DHT22;53468;48.276;14.416;2023-02-28T04:16:53;-1.10;99.90
66610;DHT22;53468;48.276;14.416;2023-02-28T04:21:55;-1.10;99.90
66610;DHT22;53468;48.276;14.416;2023-02-28T04:26:59;-1.20;99.90
66610;DHT22;53468;48.276;14.416;2023-02-28T04:32:01;-1.20;99.90
66610;DHT22;53468;48.276;14.416;2023-02-28T04:37:04;-1.10;99.90
66610;DHT22;53468;48.276;14.416;2023-02-28T04:42:08;-1.30;99.90
66610;DHT22;53468;48.276;14.416;2023-02-28T04:47:10;-1.20;99.90
66610;DHT22;53468;48.276;14.416;2023-02-28T04:52:12;-1.30;99.90
66610;DHT22;53468;48.276;14.416;2023-02-28T04:57:15;-1.30;99.90
66610;DHT22;53468;48.276;14.416;2023-02-28T05:02:17;-1.30;99.90
66610;DHT22;53468;48.276;14.416;2023-02-28T05:07:20;-1.30;99.90
66610;DHT22;53468;48.276;14.416;2023-02-28T05:12:24;-1.30;99.90
66610;DHT22;53468;48.276;14.416;2023-02-28T05:17:26;-1.30;99.90
66610;DHT22;53468;48.276;14.416;2023-02-28T05:22:28;-1.40;99.90
66610;DHT22;53468;48.276;14.416;2023-02-28T05:27:32;-1.40;99.90
66610;DHT22;53468;48.276;14.416;2023-02-28T05:32:34;-1.40;99.90
66610;DHT22;53468;48.276;14.416;2023-02-28T05:37:36;-1.40;99.90
66610;DHT22;53468;48.276;14.416;2023-02-28T05:42:40;-1.40;99.90
66610;DHT22;53468;48.276;14.416;2023-02-28T05:47:42;-1.50;99.90
66610;DHT22;53468;48.276;14.416;2023-02-28T05:52:44;-1.40;99.90
66610;DHT22;53468;48.276;14.416;2023-02-28T05:57:47;-1.40;99.90
66610;DHT22;53468;48.276;14.416;2023-02-28T06:02:49;-1.50;99.90
66610;DHT22;53468;48.276;14.416;2023-02-28T06:07:54;-1.40;99.90
66610;DHT22;53468;48.276;14.416;2023-02-28T06:12:59;-1.40;99.90
66610;DHT22;53468;48.276;14.416;2023-02-28T06:18:03;-1.40;99.90
66610;DHT22;53468;48.276;14.416;2023-02-28T06:23:05;-1.30;99.90
66610;DHT22;53468;48.276;14.416;2023-02-28T06:28:09;-1.20;99.90
66610;DHT22;53468;48.276;14.416;2023-02-28T06:33:11;-1.10;99.90
66610;DHT22;53468;48.276;14.416;2023-02-28T06:38:13;-1.10;99.90
66610;DHT22;53468;48.276;14.416;2023-02-28T06:43:16;-1.00;99.90
66610;DHT22;53468;48.276;14.416;2023-02-28T06:48:18;-0.80;99.90
66610;DHT22;53468;48.276;14.416;2023-02-28T06:53:20;-0.70;99.90
66610;DHT22;53468;48.276;14.416;2023-02-28T06:58:24;-0.50;99.90
66610;DHT22;53468;48.276;14.416;2023-02-28T07:03:26;-0.20;99.90
66610;DHT22;53468;48.276;14.416;2023-02-28T07:08:28;0.00;99.90
66610;DHT22;53468;48.276;14.416;2023-02-28T07:13:33;0.30;99.90
66610;DHT22;53468;48.276;14.416;2023-02-28T07:18:36;0.40;99.90
66610;DHT22;53468;48.276;14.416;2023-02-28T07:23:39;0.60;99.90
66610;DHT22;53468;48.276;14.416;2023-02-28T07:28:43;0.90;99.90
66610;DHT22;53468;48.276;14.416;2023-02-28T07:33:46;1.00;99.90
66610;DHT22;53468;48.276;14.416;2023-02-28T07:38:48;1.20;99.90
66610;DHT22;53468;48.276;14.416;2023-02-28T07:43:53;1.40;99.90
66610;DHT22;53468;48.276;14.416;2023-02-28T07:48:55;1.60;99.90
66610;DHT22;53468;48.276;14.416;2023-02-28T07:53:59;1.80;99.90
66610;DHT22;53468;48.276;14.416;2023-02-28T07:59:03;1.90;99.90
66610;DHT22;53468;48.276;14.416;2023-02-28T08:04:05;2.00;99.90
66610;DHT22;53468;48.276;14.416;2023-02-28T08:09:07;2.20;99.90
66610;DHT22;53468;48.276;14.416;2023-02-28T08:14:10;2.30;99.90
66610;DHT22;53468;48.276;14.416;2023-02-28T08:19:12;2.60;99.90
66610;DHT22;53468;48.276;14.416;2023-02-28T08:24:14;2.70;99.90
66610;DHT22;53468;48.276;14.416;2023-02-28T08:29:18;2.90;99.90
66610;DHT22;53468;48.276;14.416;2023-02-28T08:34:20;3.00;99.90
66610;DHT22;53468;48.276;14.416;2023-02-28T08:39:22;3.40;99.90
66610;DHT22;53468;48.276;14.416;2023-02-28T08:44:26;4.00;99.90
66610;DHT22;53468;48.276;14.416;2023-02-28T08:49:29;4.40;99.90
66610;DHT22;53468;48.276;14.416;2023-02-28T08:54:31;4.80;99.90
66610;DHT22;53468;48.276;14.416;2023-02-28T08:59:35;5.10;99.90
66610;DHT22;53468;48.276;14.416;2023-02-28T09:04:37;5.30;99.90
66610;DHT22;53468;48.276;14.416;2023-02-28T09:09:39;5.50;99.90
66610;DHT22;53468;48.276;14.416;2023-02-28T09:14:56;5.40;99.90
66610;DHT22;53468;48.276;14.416;2023-02-28T09:19:58;5.80;99.90
66610;DHT22;53468;48.276;14.416;2023-02-28T09:25:00;6.00;99.90
66610;DHT22;53468;48.276;14.416;2023-02-28T09:30:04;6.10;99.90
66610;DHT22;53468;48.276;14.416;2023-02-28T09:35:07;6.20;99.90
66610;DHT22;53468;48.276;14.416;2023-02-28T09:40:15;6.40;99.90
66610;DHT22;53468;48.276;14.416;2023-02-28T09:45:27;6.30;99.90
66610;DHT22;53468;48.276;14.416;2023-02-28T09:50:35;6.10;99.90
66610;DHT22;53468;48.276;14.416;2023-02-28T09:55:41;6.20;99.90
66610;DHT22;53468;48.276;14.416;2023-02-28T10:00:49;6.10;99.90
66610;DHT22;53468;48.276;14.416;2023-02-28T10:06:00;6.30;99.90
66610;DHT22;53468;48.276;14.416;2023-02-28T10:11:07;6.30;99.90
66610;DHT22;53468;48.276;14.416;2023-02-28T10:16:16;6.10;99.90
66610;DHT22;53468;48.276;14.416;2023-02-28T10:21:27;6.20;99.90
66610;DHT22;53468;48.276;14.416;2023-02-28T10:26:32;6.10;99.90
66610;DHT22;53468;48.276;14.416;2023-02-28T10:31:40;6.30;99.90
66610;DHT22;53468;48.276;14.416;2023-02-28T10:36:42;6.20;99.90
66610;DHT22;53468;48.276;14.416;2023-02-28T10:41:45;6.30;99.90
66610;DHT22;53468;48.276;14.416;2023-02-28T10:46:50;6.20;99.90
66610;DHT22;53468;48.276;14.416;2023-02-28T10:51:55;6.20;99.90
66610;DHT22;53468;48.276;14.416;2023-02-28T10:57:15;6.20;99.90
66610;DHT22;53468;48.276;14.416;2023-02-28T11:02:34;6.20;99.90
66610;DHT22;53468;48.276;14.416;2023-02-28T11:07:38;6.20;99.90
66610;DHT22;53468;48.276;14.416;2023-02-28T11:12:40;6.10;99.90
66610;DHT22;53468;48.276;14.416;2023-02-28T11:17:53;6.10;99.90
66610;DHT22;53468;48.276;14.416;2023-02-28T11:22:57;6.00;99.90
66610;DHT22;53468;48.276;14.416;2023-02-28T11:28:01;6.10;99.90
66610;DHT22;53468;48.276;14.416;2023-02-28T11:33:25;6.10;99.90
66610;DHT22;53468;48.276;14.416;2023-02-28T11:38:28;6.10;99.90
66610;DHT22;53468;48.276;14.416;2023-02-28T11:43:48;6.20;99.90
66610;DHT22;53468;48.276;14.416;2023-02-28T11:49:00;6.20;99.90
66610;DHT22;53468;48.276;14.416;2023-02-28T11:54:23;6.30;99.90
66610;DHT22;53468;48.276;14.416;2023-02-28T11:59:39;6.30;99.90
66610;DHT22;53468;48.276;14.416;2023-02-28T12:04:54;6.40;99.90
66610;DHT22;53468;48.276;14.416;2023-02-28T12:10:05;6.20;99.90
66610;DHT22;53468;48.276;14.416;2023-02-28T12:15:37;6.30;99.90
66610;DHT22;53468;48.276;14.416;2023-02-28T12:20:53;6.40;99.90
66610;DHT22;53468;48.276;14.416;2023-02-28T12:26:07;6.50;99.90
66610;DHT22;53468;48.276;14.416;2023-02-28T12:31:20;6.40;99.90
66610;DHT22;53468;48.276;14.416;2023-02-28T12:36:25;6.40;99.90
66610;DHT22;53468;48.276;14.416;2023-02-28T12:41:34;6.40;99.90
66610;DHT22;53468;48.276;14.416;2023-02-28T12:46:42;6.50;99.90
66610;DHT22;53468;48.276;14.416;2023-02-28T12:51:47;6.50;99.90
66610;DHT22;53468;48.276;14.416;2023-02-28T12:56:57;6.50;99.90
66610;DHT22;53468;48.276;14.416;2023-02-28T13:13:47;6.60;99.90
66610;DHT22;53468;48.276;14.416;2023-02-28T13:19:09;6.60;99.90
66610;DHT22;53468;48.276;14.416;2023-02-28T13:24:38;6.70;99.90
66610;DHT22;53468;48.276;14.416;2023-02-28T13:29:42;6.70;99.90
66610;DHT22;53468;48.276;14.416;2023-02-28T13:35:13;6.90;99.90
66610;DHT22;53468;48.276;14.416;2023-02-28T13:40:33;7.00;99.90
66610;DHT22;53468;48.276;14.416;2023-02-28T13:45:38;7.10;99.90
66610;DHT22;53468;48.276;14.416;2023-02-28T13:50:41;7.00;99.90
66610;DHT22;53468;48.276;14.416;2023-02-28T13:55:46;7.00;99.90
66610;DHT22;53468;48.276;14.416;2023-02-28T14:01:05;7.20;99.90
66610;DHT22;53468;48.276;14.416;2023-02-28T14:06:15;7.50;99.90
66610;DHT22;53468;48.276;14.416;2023-02-28T14:11:28;7.50;99.90
66610;DHT22;53468;48.276;14.416;2023-02-28T14:16:40;7.60;99.90
66610;DHT22;53468;48.276;14.416;2023-02-28T14:21:58;7.80;99.90
66610;DHT22;53468;48.276;14.416;2023-02-28T14:27:29;7.80;99.90
66610;DHT22;53468;48.276;14.416;2023-02-28T14:32:41;7.70;99.90
66610;DHT22;53468;48.276;14.416;2023-02-28T14:37:44;7.70;99.90
66610;DHT22;53468;48.276;14.416;2023-02-28T14:42:56;7.60;99.90
66610;DHT22;53468;48.276;14.416;2023-02-28T14:47:59;7.50;99.90
66610;DHT22;53468;48.276;14.416;2023-02-28T14:53:03;7.30;99.90
66610;DHT22;53468;48.276;14.416;2023-02-28T14:58:22;7.20;99.90
66610;DHT22;53468;48.276;14.416;2023-02-28T15:03:31;7.10;99.90
66610;DHT22;53468;48.276;14.416;2023-02-28T15:08:33;7.00;99.90
66610;DHT22;53468;48.276;14.416;2023-02-28T15:13:40;6.90;99.90
66610;DHT22;53468;48.276;14.416;2023-02-28T15:18:48;6.60;99.90
66610;DHT22;53468;48.276;14.416;2023-02-28T15:23:53;6.60;99.90
66610;DHT22;53468;48.276;14.416;2023-02-28T15:29:01;6.50;99.90
66610;DHT22;53468;48.276;14.416;2023-02-28T15:34:12;6.30;99.90
66610;DHT22;53468;48.276;14.416;2023-02-28T15:39:21;6.20;99.90
66610;DHT22;53468;48.276;14.416;2023-02-28T15:44:27;6.00;99.90
66610;DHT22;53468;48.276;14.416;2023-02-28T15:49:39;5.80;99.90
66610;DHT22;53468;48.276;14.416;2023-02-28T15:54:41;5.70;99.90
66610;DHT22;53468;48.276;14.416;2023-02-28T15:59:52;5.60;99.90
66610;DHT22;53468;48.276;14.416;2023-02-28T16:04:58;5.30;99.90
66610;DHT22;53468;48.276;14.416;2023-02-28T16:10:01;5.30;99.90
66610;DHT22;53468;48.276;14.416;2023-02-28T16:15:08;5.20;99.90
66610;DHT22;53468;48.276;14.416;2023-02-28T16:20:13;5.10;99.90
66610;DHT22;53468;48.276;14.416;2023-02-28T16:25:17;5.10;99.90
66610;DHT22;53468;48.276;14.416;2023-02-28T16:30:23;5.00;99.90
66610;DHT22;53468;48.276;14.416;2023-02-28T16:35:25;4.90;99.90
66610;DHT22;53468;48.276;14.416;2023-02-28T16:40:27;4.80;99.90
66610;DHT22;53468;48.276;14.416;2023-02-28T16:45:36;4.80;99.90
66610;DHT22;53468;48.276;14.416;2023-02-28T16:50:38;4.80;99.90
66610;DHT22;53468;48.276;14.416;2023-02-28T16:55:40;4.70;99.90
66610;DHT22;53468;48.276;14.416;2023-02-28T17:00:44;4.70;99.90
66610;DHT22;53468;48.276;14.416;2023-02-28T17:05:46;4.60;99.90
66610;DHT22;53468;48.276;14.416;2023-02-28T17:10:48;4.50;99.90
66610;DHT22;53468;48.276;14.416;2023-02-28T17:15:51;4.50;99.90
66610;DHT22;53468;48.276;14.416;2023-02-28T17:20:53;4.50;99.90
66610;DHT22;53468;48.276;14.416;2023-02-28T17:25:55;4.40;99.90
66610;DHT22;53468;48.276;14.416;2023-02-28T17:30:59;4.30;99.90
66610;DHT22;53468;48.276;14.416;2023-02-28T17:36:01;4.30;99.90
66610;DHT22;53468;48.276;14.416;2023-02-28T17:41:03;4.20;99.90
66610;DHT22;53468;48.276;14.416;2023-02-28T17:46:11;4.20;99.90
66610;DHT22;53468;48.276;14.416;2023-02-28T17:51:17;4.10;99.90
66610;DHT22;53468;48.276;14.416;2023-02-28T17:56:21;4.10;99.90
66610;DHT22;53468;48.276;14.416;2023-02-28T18:01:26;4.10;99.90
66610;DHT22;53468;48.276;14.416;2023-02-28T18:06:36;4.10;99.90
66610;DHT22;53468;48.276;14.416;2023-02-28T18:11:46;4.00;99.90
66610;DHT22;53468;48.276;14.416;2023-02-28T18:16:53;4.00;99.90
66610;DHT22;53468;48.276;14.416;2023-02-28T18:21:55;4.00;99.90
66610;DHT22;53468;48.276;14.416;2023-02-28T18:26:57;3.90;99.90
66610;DHT22;53468;48.276;14.416;2023-02-28T18:32:00;3.90;99.90
66610;DHT22;53468;48.276;14.416;2023-02-28T18:37:03;3.90;99.90
66610;DHT22;53468;48.276;14.416;2023-02-28T18:42:05;3.80;99.90
66610;DHT22;53468;48.276;14.416;2023-02-28T18:47:09;3.90;99.90
66610;DHT22;53468;48.276;14.416;2023-02-28T18:52:11;3.80;99.90
66610;DHT22;53468;48.276;14.416;2023-02-28T18:57:13;3.80;99.90
66610;DHT22;53468;48.276;14.416;2023-02-28T19:02:17;3.80;99.90
66610;DHT22;53468;48.276;14.416;2023-02-28T19:07:19;3.80;99.90
66610;DHT22;53468;48.276;14.416;2023-02-28T19:12:22;3.70;99.90
66610;DHT22;53468;48.276;14.416;2023-02-28T19:17:25;3.70;99.90
66610;DHT22;53468;48.276;14.416;2023-02-28T19:22:28;3.60;99.90
66610;DHT22;53468;48.276;14.416;2023-02-28T19:27:30;3.60;99.90
66610;DHT22;53468;48.276;14.416;2023-02-28T19:32:34;3.60;99.90
66610;DHT22;53468;48.276;14.416;2023-02-28T19:37:36;3.50;99.90
66610;DHT22;53468;48.276;14.416;2023-02-28T19:42:39;3.40;99.90
66610;DHT22;53468;48.276;14.416;2023-02-28T19:47:42;3.30;99.90
66610;DHT22;53468;48.276;14.416;2023-02-28T19:52:44;3.30;99.90
66610;DHT22;53468;48.276;14.416;2023-02-28T19:57:49;3.10;99.90
66610;DHT22;53468;48.276;14.416;2023-02-28T20:02:52;3.00;99.90
66610;DHT22;53468;48.276;14.416;2023-02-28T20:07:54;2.80;99.90
66610;DHT22;53468;48.276;14.416;2023-02-28T20:12:56;2.70;99.90
66610;DHT22;53468;48.276;14.416;2023-02-28T20:18:00;2.60;99.90
66610;DHT22;53468;48.276;14.416;2023-02-28T20:23:02;2.40;99.90
66610;DHT22;53468;48.276;14.416;2023-02-28T20:28:04;2.40;99.90
66610;DHT22;53468;48.276;14.416;2023-02-28T20:33:08;2.20;99.90
66610;DHT22;53468;48.276;14.416;2023-02-28T20:38:10;2.10;99.90
66610;DHT22;53468;48.276;14.416;2023-02-28T20:43:12;2.00;99.90
66610;DHT22;53468;48.276;14.416;2023-02-28T20:48:16;1.90;99.90
66610;DHT22;53468;48.276;14.416;2023-02-28T20:53:18;1.90;99.90
66610;DHT22;53468;48.276;14.416;2023-02-28T20:58:22;1.80;99.90
66610;DHT22;53468;48.276;14.416;2023-02-28T21:03:25;1.70;99.90
66610;DHT22;53468;48.276;14.416;2023-02-28T21:08:28;1.70;99.90
66610;DHT22;53468;48.276;14.416;2023-02-28T21:13:30;1.60;99.90
66610;DHT22;53468;48.276;14.416;2023-02-28T21:18:34;1.50;99.90
66610;DHT22;53468;48.276;14.416;2023-02-28T21:23:37;1.50;99.90
66610;DHT22;53468;48.276;14.416;2023-02-28T21:28:39;1.50;99.90
66610;DHT22;53468;48.276;14.416;2023-02-28T21:33:46;1.40;99.90
66610;DHT22;53468;48.276;14.416;2023-02-28T21:38:54;1.40;99.90
66610;DHT22;53468;48.276;14.416;2023-02-28T21:43:56;1.40;99.90
66610;DHT22;53468;48.276;14.416;2023-02-28T21:49:00;1.40;99.90
66610;DHT22;53468;48.276;14.416;2023-02-28T21:54:02;1.30;99.90
66610;DHT22;53468;48.276;14.416;2023-02-28T21:59:04;1.30;99.90
66610;DHT22;53468;48.276;14.416;2023-02-28T22:04:12;1.20;99.90
66610;DHT22;53468;48.276;14.416;2023-02-28T22:09:20;1.20;99.90
66610;DHT22;53468;48.276;14.416;2023-02-28T22:14:23;1.20;99.90
66610;DHT22;53468;48.276;14.416;2023-02-28T22:19:28;1.20;99.90
66610;DHT22;53468;48.276;14.416;2023-02-28T22:24:31;1.20;99.90
66610;DHT22;53468;48.276;14.416;2023-02-28T22:29:33;1.20;99.90
66610;DHT22;53468;48.276;14.416;2023-02-28T22:34:36;1.10;99.90
66610;DHT22;53468;48.276;14.416;2023-02-28T22:39:38;1.10;99.90
66610;DHT22;53468;48.276;14.416;2023-02-28T22:44:40;1.00;99.90
66610;DHT22;53468;48.276;14.416;2023-02-28T22:49:44;1.00;99.90
66610;DHT22;53468;48.276;14.416;2023-02-28T22:54:49;1.00;99.90
66610;DHT22;53468;48.276;14.416;2023-02-28T22:59:53;1.00;99.90
66610;DHT22;53468;48.276;14.416;2023-02-28T23:04:56;0.90;99.90
66610;DHT22;53468;48.276;14.416;2023-02-28T23:09:58;0.90;99.90
66610;DHT22;53468;48.276;14.416;2023-02-28T23:15:00;0.90;99.90
66610;DHT22;53468;48.276;14.416;2023-02-28T23:20:04;0.90;99.90
66610;DHT22;53468;48.276;14.416;2023-02-28T23:25:07;0.80;99.90
66610;DHT22;53468;48.276;14.416;2023-02-28T23:30:10;0.80;99.90
66610;DHT22;53468;48.276;14.416;2023-02-28T23:35:14;0.80;99.90
66610;DHT22;53468;48.276;14.416;2023-02-28T23:40:16;0.80;99.90
66610;DHT22;53468;48.276;14.416;2023-02-28T23:45:18;0.70;99.90
66610;DHT22;53468;48.276;14.416;2023-02-28T23:50:22;0.80;99.90
66610;DHT22;53468;48.276;14.416;2023-02-28T23:55:24;0.70;99.90
